CPX81 Details

Departure: Kingsford Smith International Airport (YSSY)
Arrival: Daniel K Inouye International Airport (PHNL)


Current Weather Information
YSSY 260004Z 26015G26KT CAVOK 22/06 Q1016
PHNL 252353Z 07012G18KT 10SM SCT028 BKN046 BKN075 27/18 A3006 RMK AO2 RAB22E32 SLP179 P0000 60000 T02720178 10278 20228 58015